Time;durP1;ratioP1;P1;durP2;ratioP2;P2;SDS_P1;SDS_P2;PMS_P1;PMS_P2;Temp;Humidity;BMP_temperature;BMP_pressure;BME280_temperature;BME280_humidity;BME280_pressure;Samples;Min_cycle;Max_cycle;Signal;HPM_P1;HPM_P2
2023/11/11 00:02:09;;;;;;;0.00;0.00;;;;;;;11.22;59.79;98359.63;5307602;26;20400;-90
2023/11/11 00:04:34;;;;;;;0.62;0.62;;;;;;;11.25;59.80;98362.06;5289295;26;20052;-90
2023/11/11 00:07:00;;;;;;;0.25;0.25;;;;;;;11.11;59.79;98355.94;5307026;26;21790;-90
2023/11/11 00:09:25;;;;;;;0.77;0.77;;;;;;;10.93;59.79;98340.44;5307506;26;20079;-90
2023/11/11 00:11:51;;;;;;;0.00;0.00;;;;;;;10.94;59.78;98354.28;5306919;26;20087;-90
2023/11/11 00:14:16;;;;;;;0.85;0.77;;;;;;;10.86;59.78;98352.09;5306921;26;20382;-90
2023/11/11 00:16:42;;;;;;;0.65;0.40;;;;;;;10.88;59.78;98349.41;5307502;26;20930;-91
2023/11/11 00:19:09;;;;;;;6.03;1.73;;;;;;;10.81;59.77;98350.69;5307609;26;20130;-90
2023/11/11 00:21:37;;;;;;;0.60;0.52;;;;;;;10.81;59.77;98354.13;5307832;26;20715;-91
2023/11/11 00:24:05;;;;;;;0.80;0.47;;;;;;;10.87;59.78;98351.16;5307515;26;20060;-89
2023/11/11 00:26:31;;;;;;;1.08;0.93;;;;;;;10.81;59.77;98348.06;5292226;26;20064;-89
2023/11/11 00:28:56;;;;;;;0.05;0.05;;;;;;;10.97;59.78;98348.91;5317473;26;26305;-89
2023/11/11 00:31:21;;;;;;;0.52;0.52;;;;;;;10.76;59.77;98343.97;5300069;27;22278;-90
2023/11/11 00:33:51;;;;;;;1.45;1.08;;;;;;;10.98;59.78;98343.62;5300493;27;20112;-90
2023/11/11 00:36:18;;;;;;;2.20;0.75;;;;;;;10.97;59.78;98341.09;5282149;27;20073;-91
2023/11/11 00:38:44;;;;;;;0.68;0.68;;;;;;;10.85;59.77;98346.97;5300793;27;20075;-90
2023/11/11 00:41:09;;;;;;;1.55;0.70;;;;;;;10.97;59.78;98336.72;5300448;27;20053;-90
2023/11/11 00:43:35;;;;;;;0.00;0.00;;;;;;;11.04;59.78;98342.41;5299185;27;29769;-90
2023/11/11 00:46:06;;;;;;;0.10;0.10;;;;;;;11.04;59.79;98340.66;5281178;27;20387;-89
2023/11/11 00:48:32;;;;;;;0.20;0.17;;;;;;;11.13;59.79;98339.31;5300084;27;20479;-90
2023/11/11 00:50:58;;;;;;;0.20;0.20;;;;;;;11.19;59.80;98343.34;5280477;27;20077;-91
2023/11/11 00:53:24;;;;;;;0.60;0.25;;;;;;;11.19;59.80;98344.16;5300233;27;20049;-89
2023/11/11 00:55:49;;;;;;;0.45;0.43;;;;;;;11.09;59.79;98332.59;5299726;27;20056;-90
2023/11/11 00:58:14;;;;;;;0.47;0.47;;;;;;;11.01;59.79;98329.59;5299576;27;20450;-89
2023/11/11 01:00:42;;;;;;;1.12;0.80;;;;;;;10.92;59.78;98328.34;5299187;27;20496;-88
2023/11/11 01:03:08;;;;;;;0.20;0.20;;;;;;;10.85;59.77;98331.34;5281780;27;20049;-89
2023/11/11 01:05:36;;;;;;;2.47;0.75;;;;;;;11.01;59.79;98340.00;5299331;27;20091;-89
2023/11/11 01:08:01;;;;;;;0.90;0.90;;;;;;;11.04;59.78;98330.25;5298191;27;31959;-90
2023/11/11 01:10:28;;;;;;;0.32;0.32;;;;;;;11.17;59.79;98324.34;5299451;27;25007;-91
2023/11/11 01:12:56;;;;;;;3.03;1.48;;;;;;;11.00;59.79;98330.50;5282063;27;20124;-90
2023/11/11 01:15:21;;;;;;;0.57;0.57;;;;;;;11.08;59.80;98336.12;5282560;27;20061;-90
2023/11/11 01:17:47;;;;;;;3.62;1.02;;;;;;;11.13;59.79;98331.50;5300415;27;20119;-90
2023/11/11 01:20:12;;;;;;;0.00;0.00;;;;;;;11.00;59.79;98323.53;5282034;27;20118;-90
2023/11/11 01:22:38;;;;;;;0.75;0.75;;;;;;;10.95;59.78;98320.34;5300614;27;20108;-90
2023/11/11 01:25:04;;;;;;;0.10;0.10;;;;;;;11.02;59.79;98320.84;5300574;27;20358;-90
2023/11/11 01:27:31;;;;;;;0.60;0.60;;;;;;;10.90;59.78;98321.56;5282757;27;20076;-90
2023/11/11 01:29:58;;;;;;;0.00;0.00;;;;;;;10.97;59.78;98317.66;5307928;26;20076;-91
2023/11/11 01:32:23;;;;;;;0.30;0.30;;;;;;;10.91;59.78;98311.06;5289851;26;20071;-91
2023/11/11 01:34:49;;;;;;;0.45;0.45;;;;;;;11.19;59.79;98309.47;5307884;26;20084;-90
2023/11/11 01:37:14;;;;;;;0.10;0.10;;;;;;;11.04;59.78;98316.37;5307824;26;20112;-90
2023/11/11 01:39:41;;;;;;;1.60;1.02;;;;;;;11.01;59.79;98311.34;5307892;26;20079;-91
2023/11/11 01:42:07;;;;;;;1.10;1.00;;;;;;;11.00;59.79;98315.72;5308117;26;20118;-91
2023/11/11 01:44:32;;;;;;;0.10;0.10;;;;;;;11.14;59.79;98308.91;5307989;26;20117;-91
2023/11/11 01:46:58;;;;;;;0.00;0.00;;;;;;;11.20;59.79;98313.75;5308132;26;20349;-91
2023/11/11 01:49:23;;;;;;;0.20;0.20;;;;;;;11.04;59.78;98305.97;5307178;26;20100;-90
2023/11/11 01:51:55;;;;;;;0.52;0.52;;;;;;;11.04;59.78;98309.41;5307949;26;20060;-91
2023/11/11 01:54:20;;;;;;;0.22;0.22;;;;;;;11.26;59.80;98309.03;5308722;26;20056;-91
2023/11/11 01:56:46;;;;;;;0.80;0.80;;;;;;;11.27;59.80;98307.25;5307351;26;26195;-90
2023/11/11 01:59:12;;;;;;;0.30;0.30;;;;;;;11.17;59.80;98309.56;5289757;26;20455;-90
2023/11/11 02:01:37;;;;;;;2.35;2.17;;;;;;;11.15;59.79;98303.63;5307120;26;20116;-91
2023/11/11 02:04:02;;;;;;;3.17;2.78;;;;;;;10.86;59.78;98309.59;5317633;26;20103;-90
2023/11/11 02:06:28;;;;;;;1.75;1.25;;;;;;;11.00;59.79;98313.12;5308307;26;20106;-89
2023/11/11 02:08:54;;;;;;;0.20;0.20;;;;;;;10.79;59.77;98310.88;5307811;26;20481;-90
2023/11/11 02:11:19;;;;;;;0.57;0.57;;;;;;;10.86;59.78;98312.22;5307841;26;20064;-90
2023/11/11 02:13:45;;;;;;;2.35;1.20;;;;;;;10.80;59.77;98321.22;5307402;26;20155;-90
2023/11/11 02:16:10;;;;;;;5.90;1.52;;;;;;;10.99;59.79;98316.66;5308149;26;20088;-91
2023/11/11 02:18:36;;;;;;;0.03;0.03;;;;;;;10.94;59.78;98316.09;5307668;26;20121;-91
2023/11/11 02:21:01;;;;;;;2.70;1.58;;;;;;;10.81;59.77;98319.44;5308116;26;20059;-90
2023/11/11 02:23:36;;;;;;;0.50;0.50;;;;;;;10.95;59.78;98316.91;5307222;26;20456;-91
2023/11/11 02:26:02;;;;;;;0.65;0.65;;;;;;;10.82;59.77;98323.72;5289850;26;20033;-90
2023/11/11 02:28:28;;;;;;;0.90;0.90;;;;;;;10.68;59.76;98324.50;5289685;26;20068;-90
2023/11/11 02:30:53;;;;;;;0.10;0.10;;;;;;;10.76;59.77;98323.16;5289361;26;20060;-91
2023/11/11 02:33:19;;;;;;;2.42;1.55;;;;;;;10.61;59.76;98318.78;5307260;26;24492;-90
2023/11/11 02:35:45;;;;;;;0.28;0.28;;;;;;;10.92;59.78;98312.72;5307641;26;20116;-90
2023/11/11 02:38:12;;;;;;;0.20;0.20;;;;;;;10.80;59.77;98312.56;5307248;26;20415;-91
2023/11/11 02:40:39;;;;;;;0.10;0.10;;;;;;;10.74;59.77;98314.59;5308510;26;20039;-91
2023/11/11 02:43:05;;;;;;;0.00;0.00;;;;;;;10.78;59.77;98312.66;5307750;26;20064;-90
2023/11/11 02:45:30;;;;;;;2.42;0.52;;;;;;;10.77;59.78;98306.59;5308129;26;20119;-90
2023/11/11 02:47:55;;;;;;;0.25;0.25;;;;;;;10.76;59.77;98312.72;5307667;26;20099;-90
2023/11/11 02:50:21;;;;;;;1.65;0.88;;;;;;;10.85;59.77;98302.72;5306829;26;28658;-90
2023/11/11 02:52:46;;;;;;;0.40;0.40;;;;;;;10.69;59.76;98301.00;5307513;26;20379;-89
2023/11/11 02:55:12;;;;;;;0.08;0.08;;;;;;;10.80;59.77;98297.78;5307227;26;20408;-89
2023/11/11 02:57:37;;;;;;;0.55;0.55;;;;;;;10.97;59.78;98294.25;5307574;26;20416;-91
2023/11/11 03:00:04;;;;;;;0.00;0.00;;;;;;;10.88;59.78;98292.13;5307175;26;20115;-91
2023/11/11 03:02:29;;;;;;;5.75;1.00;;;;;;;11.09;59.79;98280.50;5307864;26;20083;-91
2023/11/11 03:04:55;;;;;;;0.75;0.75;;;;;;;11.27;59.80;98274.25;5307550;26;20084;-91
2023/11/11 03:07:21;;;;;;;0.65;0.65;;;;;;;11.04;59.78;98265.16;5307884;26;20144;-90
2023/11/11 03:09:46;;;;;;;0.22;0.22;;;;;;;11.10;59.79;98261.34;5307413;26;20063;-92
2023/11/11 03:12:12;;;;;;;0.85;0.57;;;;;;;10.81;59.77;98265.63;5305418;26;29709;-92
2023/11/11 03:14:37;;;;;;;7.00;1.70;;;;;;;10.84;59.77;98255.03;5307317;26;20072;-92
2023/11/11 03:17:03;;;;;;;4.05;0.85;;;;;;;10.98;59.78;98255.09;5307344;26;20060;-92
2023/11/11 03:19:28;;;;;;;1.77;1.65;;;;;;;10.84;59.77;98256.78;5307264;26;20076;-92
2023/11/11 03:21:54;;;;;;;0.10;0.10;;;;;;;10.89;59.78;98250.44;5307199;26;20094;-91
2023/11/11 03:24:20;;;;;;;0.20;0.20;;;;;;;10.99;59.79;98248.97;5306952;26;20064;-92
2023/11/11 03:26:45;;;;;;;0.45;0.45;;;;;;;10.96;59.78;98246.53;5307098;26;20075;-92
2023/11/11 03:29:11;;;;;;;0.30;0.30;;;;;;;10.87;59.78;98243.59;5306686;26;21546;-92
2023/11/11 03:31:36;;;;;;;0.13;0.13;;;;;;;10.60;59.76;98231.22;5306734;26;23578;-90
2023/11/11 03:34:01;;;;;;;3.25;1.45;;;;;;;10.97;59.78;98239.56;5307225;26;20095;-90
2023/11/11 03:36:27;;;;;;;0.10;0.10;;;;;;;10.80;59.77;98237.91;5308328;26;28208;-90
2023/11/11 03:38:52;;;;;;;0.57;0.57;;;;;;;10.81;59.77;98238.75;5338309;26;21070;-89
2023/11/11 03:41:18;;;;;;;2.95;1.02;;;;;;;10.81;59.77;98229.19;5308203;26;20072;-90
2023/11/11 03:43:43;;;;;;;0.22;0.22;;;;;;;10.77;59.78;98233.72;5308023;26;24751;-90
2023/11/11 03:46:09;;;;;;;1.33;0.88;;;;;;;10.72;59.77;98235.75;5307745;26;20052;-89
2023/11/11 03:48:34;;;;;;;0.20;0.20;;;;;;;10.87;59.78;98246.22;5308215;26;20052;-90
2023/11/11 03:50:59;;;;;;;0.00;0.00;;;;;;;10.56;59.76;98245.34;5307184;26;32151;-90
2023/11/11 03:53:25;;;;;;;1.45;0.95;;;;;;;10.66;59.76;98246.53;5307094;26;32184;-90
2023/11/11 03:55:51;;;;;;;0.00;0.00;;;;;;;10.87;59.78;98248.81;5307962;26;20080;-90
2023/11/11 03:58:16;;;;;;;0.20;0.20;;;;;;;10.80;59.77;98250.09;5308114;26;20061;-90
2023/11/11 04:00:44;;;;;;;2.10;1.00;;;;;;;10.97;59.78;98252.56;5306996;26;31358;-89
2023/11/11 04:03:10;;;;;;;2.28;1.10;;;;;;;10.90;59.78;98244.28;5308965;26;20661;-91
2023/11/11 04:05:35;;;;;;;1.15;0.70;;;;;;;10.90;59.78;98240.84;5308499;26;20079;-90
2023/11/11 04:08:01;;;;;;;0.47;0.47;;;;;;;10.81;59.77;98233.53;5307525;26;37084;-90
2023/11/11 04:10:26;;;;;;;0.10;0.10;;;;;;;10.86;59.78;98234.13;5307899;26;30248;-90
2023/11/11 04:12:52;;;;;;;0.10;0.10;;;;;;;10.71;59.77;98223.66;5307977;26;20112;-90
2023/11/11 04:15:17;;;;;;;0.52;0.30;;;;;;;10.68;59.76;98218.66;5308196;26;20413;-90
2023/11/11 04:17:43;;;;;;;0.90;0.90;;;;;;;10.91;59.77;98234.72;5308208;26;20065;-89
2023/11/11 04:20:12;;;;;;;0.10;0.10;;;;;;;10.98;59.78;98228.22;5307827;26;20065;-90
2023/11/11 04:22:38;;;;;;;0.00;0.00;;;;;;;11.15;59.79;98217.66;5288919;26;20082;-89
2023/11/11 04:25:05;;;;;;;0.00;0.00;;;;;;;11.11;59.79;98213.53;5288621;26;20067;-89
2023/11/11 04:27:32;;;;;;;0.50;0.50;;;;;;;11.12;59.79;98222.19;5289715;26;20048;-90
2023/11/11 04:29:57;;;;;;;4.28;2.12;;;;;;;11.03;59.78;98223.56;5288444;26;20032;-90
2023/11/11 04:32:23;;;;;;;9.00;4.78;;;;;;;10.95;59.78;98221.44;5306294;26;20133;-90
2023/11/11 04:34:50;;;;;;;5.97;3.85;;;;;;;10.91;59.77;98217.34;5306391;26;20104;-90
2023/11/11 04:37:17;;;;;;;0.60;0.60;;;;;;;10.84;59.77;98209.94;5306670;26;20491;-90
2023/11/11 04:39:45;;;;;;;0.37;0.37;;;;;;;11.16;59.79;98211.53;5306666;26;20247;-89
2023/11/11 04:42:11;;;;;;;0.47;0.47;;;;;;;11.03;59.79;98215.75;5308170;26;20083;-90
2023/11/11 04:44:36;;;;;;;0.55;0.55;;;;;;;10.87;59.78;98213.19;5308220;26;20059;-90
2023/11/11 04:47:02;;;;;;;5.22;2.10;;;;;;;10.82;59.77;98212.63;5307447;26;20067;-91
2023/11/11 04:49:27;;;;;;;1.17;0.90;;;;;;;10.86;59.78;98210.69;5308033;26;20329;-90
2023/11/11 04:51:53;;;;;;;1.73;0.85;;;;;;;11.11;59.78;98210.09;5306640;26;29128;-91
2023/11/11 04:54:18;;;;;;;0.75;0.75;;;;;;;11.03;59.79;98207.97;5306839;26;29052;-91
2023/11/11 04:56:43;;;;;;;0.08;0.08;;;;;;;11.16;59.80;98203.72;5307209;26;20068;-91
2023/11/11 04:59:13;;;;;;;0.00;0.00;;;;;;;11.15;59.79;98207.25;5307255;26;20115;-90
2023/11/11 05:01:39;;;;;;;0.32;0.32;;;;;;;11.20;59.79;98205.22;5308224;26;20068;-88
2023/11/11 05:04:04;;;;;;;1.08;0.65;;;;;;;11.25;59.80;98208.38;5307690;26;20437;-89
2023/11/11 05:06:29;;;;;;;0.00;0.00;;;;;;;11.08;59.79;98201.53;5325245;26;30860;-89
2023/11/11 05:08:55;;;;;;;0.00;0.00;;;;;;;11.16;59.79;98211.53;5307600;26;20079;-89
2023/11/11 05:11:21;;;;;;;0.00;0.00;;;;;;;10.85;59.78;98220.25;5311673;26;20083;-89
2023/11/11 05:13:46;;;;;;;0.57;0.37;;;;;;;10.96;59.78;98222.25;5310497;26;20076;-89
2023/11/11 05:16:26;;;;;;;0.60;0.60;;;;;;;10.85;59.77;98222.03;5306817;26;29783;-89
2023/11/11 05:18:52;;;;;;;0.00;0.00;;;;;;;10.84;59.77;98229.00;5309997;26;20064;-90
2023/11/11 05:21:18;;;;;;;0.25;0.22;;;;;;;10.75;59.77;98225.16;5307661;26;20322;-90
2023/11/11 05:23:43;;;;;;;0.05;0.05;;;;;;;10.91;59.77;98227.75;5307508;26;20397;-89
2023/11/11 05:26:09;;;;;;;0.28;0.28;;;;;;;11.09;59.79;98233.63;5307662;26;20428;-88
2023/11/11 05:28:34;;;;;;;0.00;0.00;;;;;;;10.80;59.78;98234.47;5307337;26;20089;-89
2023/11/11 05:31:00;;;;;;;0.00;0.00;;;;;;;10.88;59.78;98232.25;5307439;26;20098;-89
2023/11/11 05:33:25;;;;;;;0.35;0.20;;;;;;;11.10;59.79;98222.28;5306909;26;21197;-89
2023/11/11 05:35:51;;;;;;;1.85;0.62;;;;;;;11.22;59.79;98224.19;5306378;26;31855;-90
2023/11/11 05:38:16;;;;;;;1.75;0.60;;;;;;;11.34;59.81;98228.66;5325302;26;20130;-90
2023/11/11 05:40:42;;;;;;;0.20;0.20;;;;;;;10.96;59.78;98235.28;5307382;26;20367;-89
2023/11/11 05:43:08;;;;;;;0.73;0.57;;;;;;;11.13;59.79;98223.91;5307461;26;20053;-89
2023/11/11 05:45:34;;;;;;;0.55;0.55;;;;;;;11.02;59.79;98221.91;5308022;26;20059;-90
2023/11/11 05:47:59;;;;;;;0.43;0.43;;;;;;;10.90;59.78;98223.47;5307460;26;20091;-90
2023/11/11 05:50:25;;;;;;;5.57;0.55;;;;;;;10.97;59.78;98229.16;5307310;26;22426;-90
2023/11/11 05:52:50;;;;;;;0.98;0.52;;;;;;;11.04;59.78;98238.28;5307400;26;20393;-90
2023/11/11 05:55:16;;;;;;;2.35;2.15;;;;;;;10.96;59.78;98237.88;5307699;26;20048;-90
2023/11/11 05:57:41;;;;;;;1.10;1.00;;;;;;;10.82;59.77;98245.63;5325687;26;20114;-90
2023/11/11 06:00:11;;;;;;;0.00;0.00;;;;;;;10.81;59.77;98230.94;5306173;26;31818;-89
2023/11/11 06:02:37;;;;;;;2.53;1.15;;;;;;;10.77;59.78;98241.53;5289859;26;20060;-89
2023/11/11 06:05:02;;;;;;;0.10;0.10;;;;;;;10.70;59.77;98245.41;5307375;26;20056;-89
2023/11/11 06:07:28;;;;;;;0.08;0.08;;;;;;;10.68;59.77;98244.66;5306908;26;20417;-88
2023/11/11 06:09:53;;;;;;;0.17;0.17;;;;;;;10.91;59.77;98245.97;5307606;26;20117;-88
2023/11/11 06:12:19;;;;;;;0.20;0.20;;;;;;;11.07;59.79;98259.75;5307116;26;20106;-89
2023/11/11 06:14:44;;;;;;;0.57;0.47;;;;;;;10.80;59.77;98263.94;5307058;26;20681;-88
2023/11/11 06:17:10;;;;;;;2.35;1.77;;;;;;;10.73;59.77;98275.62;5307035;26;20083;-89
2023/11/11 06:19:36;;;;;;;0.75;0.75;;;;;;;10.98;59.78;98269.88;5307054;26;20070;-89
2023/11/11 06:22:04;;;;;;;6.32;1.27;;;;;;;10.87;59.78;98262.66;5306571;26;20056;-87
2023/11/11 06:24:33;;;;;;;0.60;0.60;;;;;;;11.00;59.79;98261.06;5307936;26;20599;-91
2023/11/11 06:26:58;;;;;;;0.73;0.73;;;;;;;11.01;59.79;98264.50;5289808;26;20052;-90
2023/11/11 06:29:24;;;;;;;0.32;0.32;;;;;;;11.06;59.78;98263.28;5307288;26;20063;-91
2023/11/11 06:31:51;;;;;;;0.32;0.32;;;;;;;10.91;59.77;98265.97;5306837;26;23525;-91
2023/11/11 06:34:19;;;;;;;0.73;0.73;;;;;;;10.85;59.77;98266.28;5306768;26;20075;-91
2023/11/11 06:36:44;;;;;;;2.75;1.67;;;;;;;10.76;59.77;98265.88;5306952;26;20076;-89
2023/11/11 06:39:09;;;;;;;0.43;0.43;;;;;;;10.77;59.78;98258.91;5307075;26;20076;-89
2023/11/11 06:41:35;;;;;;;0.60;0.45;;;;;;;10.80;59.77;98266.53;5306072;26;21790;-90
2023/11/11 06:44:00;;;;;;;0.35;0.35;;;;;;;10.76;59.77;98265.88;5314626;26;26891;-90
2023/11/11 06:46:25;;;;;;;0.03;0.03;;;;;;;10.85;59.77;98261.06;5328826;26;20076;-90
2023/11/11 06:48:51;;;;;;;1.35;0.95;;;;;;;10.68;59.76;98264.66;5306959;26;20079;-90
2023/11/11 06:51:16;;;;;;;0.00;0.00;;;;;;;10.72;59.77;98256.56;5307205;26;20087;-89
2023/11/11 06:53:42;;;;;;;0.30;0.30;;;;;;;10.83;59.77;98255.97;5306756;26;30925;-90
2023/11/11 06:56:07;;;;;;;1.65;0.37;;;;;;;10.76;59.77;98254.63;5306380;26;28933;-89
2023/11/11 06:58:33;;;;;;;0.20;0.20;;;;;;;10.62;59.76;98257.16;5307415;26;20119;-89
2023/11/11 07:01:01;;;;;;;0.57;0.57;;;;;;;10.74;59.76;98257.31;5305622;26;33476;-88
2023/11/11 07:03:28;;;;;;;0.13;0.13;;;;;;;10.77;59.78;98259.75;5325761;26;20057;-89
2023/11/11 07:05:56;;;;;;;3.70;3.35;;;;;;;10.65;59.77;98255.25;5307485;26;20084;-89
2023/11/11 07:08:21;;;;;;;2.20;2.10;;;;;;;10.44;59.76;98265.09;5306683;26;20109;-88
2023/11/11 07:10:46;;;;;;;5.00;4.57;;;;;;;10.60;59.76;98262.44;5306109;26;29848;-88
2023/11/11 07:13:12;;;;;;;1.12;1.05;;;;;;;10.59;59.76;98262.53;5307813;26;20103;-90
2023/11/11 07:15:37;;;;;;;2.20;1.55;;;;;;;10.58;59.76;98255.66;5307950;26;20077;-90
2023/11/11 07:18:07;;;;;;;0.73;0.70;;;;;;;10.75;59.77;98250.34;5308174;26;20130;-90
2023/11/11 07:20:32;;;;;;;0.52;0.52;;;;;;;10.75;59.77;98255.56;5308799;26;20060;-90
2023/11/11 07:22:59;;;;;;;0.43;0.43;;;;;;;10.72;59.77;98259.19;5307351;26;26253;-88
2023/11/11 07:25:26;;;;;;;1.55;0.73;;;;;;;10.87;59.78;98254.00;5308056;26;20052;-90
2023/11/11 07:27:52;;;;;;;0.52;0.52;;;;;;;10.68;59.76;98257.69;5308567;26;20678;-90
2023/11/11 07:30:17;;;;;;;0.65;0.65;;;;;;;10.76;59.77;98258.06;5306603;26;30948;-90
2023/11/11 07:32:44;;;;;;;1.15;1.15;;;;;;;10.84;59.77;98262.00;5307940;26;20142;-90
2023/11/11 07:35:10;;;;;;;0.45;0.45;;;;;;;10.60;59.76;98265.06;5308413;26;20064;-89
2023/11/11 07:37:36;;;;;;;0.30;0.28;;;;;;;10.75;59.77;98263.37;5290070;26;20069;-89
2023/11/11 07:40:04;;;;;;;0.35;0.35;;;;;;;10.75;59.77;98264.22;5289980;26;20121;-90
2023/11/11 07:42:29;;;;;;;0.80;0.52;;;;;;;10.56;59.76;98270.53;5290294;26;20433;-90
2023/11/11 07:44:55;;;;;;;1.40;1.30;;;;;;;10.95;59.78;98259.66;5307923;26;20110;-90
2023/11/11 07:47:21;;;;;;;0.20;0.20;;;;;;;10.84;59.77;98257.63;5307976;26;20084;-90
2023/11/11 07:49:47;;;;;;;1.90;1.50;;;;;;;10.85;59.78;98256.72;5307873;26;20064;-90
2023/11/11 07:52:12;;;;;;;0.08;0.08;;;;;;;10.86;59.78;98257.53;5307393;26;20063;-90
2023/11/11 07:54:38;;;;;;;0.20;0.20;;;;;;;10.89;59.78;98257.41;5308133;26;20079;-90
2023/11/11 07:57:05;;;;;;;1.27;1.17;;;;;;;10.87;59.78;98257.44;5326502;26;20117;-90
2023/11/11 07:59:31;;;;;;;0.37;0.35;;;;;;;10.91;59.77;98256.37;5308671;26;20078;-88
2023/11/11 08:01:58;;;;;;;4.85;0.73;;;;;;;11.03;59.78;98245.25;5307388;26;29726;-89
2023/11/11 08:04:24;;;;;;;4.57;0.52;;;;;;;10.98;59.78;98251.66;5307746;26;20735;-88
2023/11/11 08:06:50;;;;;;;1.37;0.85;;;;;;;10.86;59.78;98236.72;5307330;26;20345;-90
2023/11/11 08:09:16;;;;;;;0.37;0.37;;;;;;;10.79;59.77;98248.41;5307320;26;20405;-90
2023/11/11 08:11:42;;;;;;;1.85;0.93;;;;;;;10.84;59.77;98243.78;5308314;26;20101;-90
2023/11/11 08:14:08;;;;;;;0.00;0.00;;;;;;;10.79;59.78;98243.22;5309145;26;20084;-88
2023/11/11 08:16:34;;;;;;;1.15;1.15;;;;;;;11.01;59.79;98249.72;5332701;26;20716;-87
2023/11/11 08:18:59;;;;;;;3.75;1.20;;;;;;;10.85;59.77;98240.25;5326273;26;20047;-88
2023/11/11 08:21:31;;;;;;;1.33;0.93;;;;;;;10.95;59.78;98244.03;5307672;26;20070;-88
2023/11/11 08:23:58;;;;;;;3.10;1.08;;;;;;;11.10;59.79;98245.72;5308556;26;20125;-89
2023/11/11 08:26:25;;;;;;;1.83;1.73;;;;;;;11.15;59.79;98242.88;5289994;26;20108;-89
2023/11/11 08:28:50;;;;;;;0.22;0.22;;;;;;;11.10;59.79;98245.72;5308120;26;20067;-88
2023/11/11 08:31:16;;;;;;;1.48;0.73;;;;;;;11.04;59.78;98241.72;5306881;26;20064;-88
2023/11/11 08:33:41;;;;;;;0.60;0.60;;;;;;;10.97;59.78;98239.56;5307319;26;20158;-88
2023/11/11 08:36:07;;;;;;;1.75;1.40;;;;;;;10.85;59.77;98240.25;5306997;26;20136;-89
2023/11/11 08:38:32;;;;;;;1.33;0.82;;;;;;;10.88;59.78;98242.66;5307697;26;20070;-88
2023/11/11 08:40:58;;;;;;;0.55;0.55;;;;;;;10.77;59.78;98232.87;5307345;26;20048;-88
2023/11/11 08:43:23;;;;;;;3.78;0.62;;;;;;;10.69;59.78;98235.94;5307173;26;20162;-87
2023/11/11 08:45:49;;;;;;;0.20;0.20;;;;;;;10.54;59.75;98242.00;5325404;26;20121;-88
2023/11/11 08:48:14;;;;;;;0.20;0.20;;;;;;;10.69;59.76;98235.94;5306859;26;20348;-86
2023/11/11 08:50:40;;;;;;;0.28;0.28;;;;;;;10.82;59.77;98236.06;5305656;26;20083;-88
2023/11/11 08:53:06;;;;;;;0.10;0.10;;;;;;;10.69;59.76;98246.34;5307626;26;20080;-89
2023/11/11 08:55:31;;;;;;;0.30;0.30;;;;;;;10.60;59.76;98249.44;5307648;26;20069;-87
2023/11/11 08:57:58;;;;;;;0.82;0.77;;;;;;;10.74;59.77;98244.31;5325027;26;24288;-89
2023/11/11 09:00:24;;;;;;;0.40;0.40;;;;;;;10.62;59.76;98250.19;5288658;26;20477;-89
2023/11/11 09:02:49;;;;;;;1.02;0.93;;;;;;;10.74;59.77;98244.31;5325045;26;20087;-86
2023/11/11 09:05:15;;;;;;;0.75;0.75;;;;;;;10.78;59.78;98252.78;5305283;26;25465;-88
2023/11/11 09:07:40;;;;;;;0.88;0.80;;;;;;;10.69;59.76;98241.13;5306848;26;20104;-87
2023/11/11 09:10:06;;;;;;;0.95;0.62;;;;;;;10.76;59.77;98244.22;5306799;26;26004;-88
2023/11/11 09:12:34;;;;;;;0.20;0.20;;;;;;;10.63;59.77;98251.88;5307491;26;20147;-88
2023/11/11 09:15:00;;;;;;;1.95;0.98;;;;;;;10.67;59.76;98257.78;5306398;26;20060;-88
2023/11/11 09:17:25;;;;;;;0.30;0.30;;;;;;;10.74;59.77;98253.88;5307182;26;20166;-89
2023/11/11 09:19:51;;;;;;;0.08;0.08;;;;;;;10.66;59.76;98256.94;5325592;26;20063;-88
2023/11/11 09:22:16;;;;;;;1.23;0.85;;;;;;;10.74;59.77;98253.88;5306636;26;20697;-88
2023/11/11 09:24:42;;;;;;;0.55;0.55;;;;;;;10.59;59.76;98252.97;5306888;26;20125;-88
2023/11/11 09:27:07;;;;;;;1.55;0.75;;;;;;;10.51;59.76;98251.72;5307798;26;20067;-86
2023/11/11 09:29:33;;;;;;;0.20;0.20;;;;;;;10.55;59.75;98253.22;5325356;26;20048;-90
2023/11/11 09:31:58;;;;;;;0.75;0.75;;;;;;;10.68;59.76;98244.66;5308171;26;20061;-90
2023/11/11 09:34:24;;;;;;;0.60;0.60;;;;;;;10.65;59.76;98244.84;5307050;26;29199;-89
2023/11/11 09:36:50;;;;;;;0.62;0.62;;;;;;;10.64;59.77;98235.34;5308322;26;20107;-88
2023/11/11 09:39:17;;;;;;;6.57;1.95;;;;;;;10.67;59.76;98239.56;5308383;26;20056;-89
2023/11/11 09:41:42;;;;;;;5.07;0.75;;;;;;;10.79;59.77;98232.81;5307905;26;20645;-90
2023/11/11 09:44:08;;;;;;;0.65;0.65;;;;;;;10.95;59.79;98236.22;5308288;26;20080;-90
2023/11/11 09:46:38;;;;;;;0.22;0.22;;;;;;;11.03;59.78;98234.84;5308876;26;20055;-89
2023/11/11 09:49:04;;;;;;;0.70;0.40;;;;;;;11.15;59.79;98238.50;5296132;26;20162;-89
2023/11/11 09:51:30;;;;;;;0.40;0.40;;;;;;;11.26;59.80;98232.66;5308580;26;20060;-90
2023/11/11 09:53:56;;;;;;;0.90;0.80;;;;;;;11.22;59.79;98232.00;5290264;26;20095;-89
2023/11/11 09:56:21;;;;;;;0.10;0.10;;;;;;;11.21;59.79;98232.94;5307968;26;20112;-90
2023/11/11 09:58:47;;;;;;;0.10;0.10;;;;;;;11.20;59.79;98225.22;5308160;26;20057;-89
2023/11/11 10:01:13;;;;;;;0.70;0.70;;;;;;;11.19;59.80;98226.13;5289749;26;20069;-89
2023/11/11 10:03:39;;;;;;;2.40;2.03;;;;;;;11.18;59.79;98225.31;5308245;26;20102;-89
2023/11/11 10:06:04;;;;;;;0.75;0.55;;;;;;;10.88;59.78;98232.25;5308660;26;20060;-89
2023/11/11 10:08:30;;;;;;;1.48;0.75;;;;;;;10.95;59.78;98231.84;5308150;26;20067;-89
2023/11/11 10:10:55;;;;;;;0.28;0.28;;;;;;;10.99;59.79;98230.72;5306946;26;25004;-89
2023/11/11 10:13:21;;;;;;;1.27;1.27;;;;;;;11.09;59.79;98228.41;5308204;26;20107;-89
2023/11/11 10:15:46;;;;;;;0.55;0.55;;;;;;;11.10;59.79;98230.09;5308226;26;20121;-89
2023/11/11 10:18:14;;;;;;;0.25;0.25;;;;;;;10.90;59.78;98227.84;5308404;26;20057;-90
2023/11/11 10:20:44;;;;;;;0.20;0.20;;;;;;;10.81;59.78;98228.34;5308144;26;20069;-89
2023/11/11 10:23:12;;;;;;;0.57;0.57;;;;;;;10.70;59.77;98224.59;5289823;26;20068;-90
2023/11/11 10:25:38;;;;;;;0.55;0.55;;;;;;;10.65;59.76;98226.63;5290165;26;20067;-89
2023/11/11 10:28:03;;;;;;;4.10;0.93;;;;;;;10.62;59.76;98220.72;5307714;26;20071;-89
2023/11/11 10:30:29;;;;;;;0.43;0.43;;;;;;;10.46;59.75;98218.19;5307956;26;20098;-89
2023/11/11 10:32:55;;;;;;;1.30;1.23;;;;;;;10.58;59.76;98214.03;5307725;26;20101;-89
2023/11/11 10:35:21;;;;;;;6.12;1.87;;;;;;;10.57;59.77;98213.19;5289667;26;20100;-89
2023/11/11 10:37:47;;;;;;;0.30;0.30;;;;;;;10.47;59.76;98212.06;5289898;26;20039;-89
2023/11/11 10:40:16;;;;;;;4.47;1.40;;;;;;;10.39;59.75;98216.81;5289533;26;20322;-89
2023/11/11 10:42:45;;;;;;;1.13;0.80;;;;;;;10.40;59.75;98215.88;5290421;26;20039;-89
2023/11/11 10:45:15;;;;;;;2.55;2.20;;;;;;;10.32;59.75;98223.28;5289572;26;20070;-89
2023/11/11 10:47:44;;;;;;;1.10;1.08;;;;;;;10.27;59.74;98226.16;5290945;26;20170;-89
2023/11/11 10:50:11;;;;;;;1.12;0.93;;;;;;;10.21;59.74;98233.47;5290482;26;20092;-89
2023/11/11 10:52:37;;;;;;;0.73;0.68;;;;;;;10.21;59.74;98228.25;5308137;26;20135;-89
2023/11/11 10:55:05;;;;;;;0.73;0.73;;;;;;;10.27;59.74;98228.75;5307835;26;20705;-89
2023/11/11 10:57:31;;;;;;;0.82;0.82;;;;;;;10.49;59.76;98228.41;5308158;26;20120;-89
2023/11/11 10:59:57;;;;;;;3.22;1.00;;;;;;;10.41;59.75;98225.41;5307810;26;20068;-89
2023/11/11 11:02:23;;;;;;;0.17;0.17;;;;;;;10.33;59.75;98223.19;5307496;26;20079;-90
2023/11/11 11:04:50;;;;;;;4.05;1.45;;;;;;;10.47;59.75;98213.81;5307753;26;20053;-89
2023/11/11 11:07:23;;;;;;;2.00;1.42;;;;;;;10.43;59.75;98221.78;5288525;26;20737;-89
2023/11/11 11:10:08;;;;;;;1.23;1.17;;;;;;;10.51;59.76;98218.75;5288445;26;20724;-90
2023/11/11 11:12:53;;;;;;;1.02;0.93;;;;;;;10.62;59.76;98224.16;5324748;26;20072;-89
2023/11/11 11:15:19;;;;;;;3.25;1.45;;;;;;;10.68;59.76;98218.66;5307060;26;20433;-90
2023/11/11 11:17:51;;;;;;;3.35;2.45;;;;;;;10.65;59.77;98221.44;5305763;26;20064;-90
2023/11/11 11:20:20;;;;;;;0.17;0.17;;;;;;;10.66;59.76;98217.91;5294189;26;20748;-90
2023/11/11 11:22:47;;;;;;;0.00;0.00;;;;;;;10.54;59.75;98228.16;5307324;26;20082;-88
2023/11/11 11:25:34;;;;;;;1.00;0.68;;;;;;;10.23;59.74;98222.03;5323511;26;20070;-90
2023/11/11 11:28:12;;;;;;;0.77;0.77;;;;;;;10.08;59.73;98225.44;5307677;26;20057;-87
2023/11/11 11:30:47;;;;;;;0.17;0.17;;;;;;;9.90;59.72;98235.06;5325062;26;20124;-86